Terminal Aerodrome Forecast
Issued by NWS

Current Version | Previous Version | Graphics & Text | Print | Product List | Glossary On
Versions: 1 2 3 4 5 6 7 8 9 10 11 12 13 14 15 16 17 18 19 20
000
FTUS41 KRLX 182322
TAFCKB
TAF
KCKB 182322Z 1900/1924 22015G21KT 6SM -SHRA BKN090 BKN120
     FM190700 24005KT P6SM OVC030
     FM191200 VRB03KT P6SM OVC050
     FM191600 28006KT P6SM BKN060
     FM191800 28006KT P6SM SCT250=

USA.gov is the U.S. government's official web portal to all federal, state and local government web resources and services.